PWSweather.com
Personal Weather Stations
Station Observations
SEVANL01
SevillaES 41004

SevillaES 41004

Lat: 37.383633, Lon: -5.985787

Elevation: 19.685

Station Type: Davis Vantage Pro2

www.tiempoensevilla.es

High Low Average
Temperature 82.4°F28.0°C 68.4°F20.2°C 73.9°F23.3°C
Dew Point 67.0°F19.4°C 51.7°F10.9°C 60.5°F15.8°C
Winds 5.5 mph 8.9 kmh 1.0 mph 1.6 kmh 4.0 mph W6.4 kmh W
Wind Gusts 13.0 mph20.9 kmh 3.0 mph4.8 kmh 9.0 mph14.5 kmh
Humidity 93% 37% 66%
Pressure 30.04 in1017.3 mb 29.88 in1011.9 mb -
Precipitation 0.05 in1.3 mm - -
Hour Temp Dew Point Humidity Winds Wind Gusts Pressure Precip Precip Rate Daily Precip Total
12:00 AM 70.4°F21.3°C 67.0°F19.4°C 89% 2.9 mph SSW4.7 kmh SSW 6.0 mph9.7 kmh 29.92 in1013.2 mb 0.00 in0.0 mm 0.00 in0.0 mm 0.00 in0.0 mm
12:20 AM 70.3°F21.3°C 66.9°F19.4°C 89% 3.1 mph SW5.0 kmh SW 7.0 mph11.3 kmh 29.92 in1013.2 mb 0.00 in0.0 mm 0.00 in0.0 mm 0.00 in0.0 mm
12:40 AM 70.2°F21.2°C 66.8°F19.3°C 89% 3.2 mph SSW5.1 kmh SSW 8.0 mph12.9 kmh 29.91 in1012.9 mb 0.00 in0.0 mm 0.00 in0.0 mm 0.00 in0.0 mm
01:00 AM 70.1°F21.2°C 66.7°F19.3°C 89% 3.0 mph SW4.8 kmh SW 7.0 mph11.3 kmh 29.91 in1012.9 mb 0.00 in0.0 mm 0.00 in0.0 mm 0.00 in0.0 mm
01:20 AM 70.2°F21.2°C 66.5°F19.2°C 88% 2.1 mph SW3.4 kmh SW 6.0 mph9.7 kmh 29.91 in1012.9 mb 0.00 in0.0 mm 0.00 in0.0 mm 0.00 in0.0 mm
01:40 AM 70.2°F21.2°C 66.5°F19.2°C 88% 2.8 mph SW4.5 kmh SW 6.0 mph9.7 kmh 29.91 in1012.9 mb 0.00 in0.0 mm 0.00 in0.0 mm 0.00 in0.0 mm
02:00 AM 70.3°F21.3°C 66.6°F19.2°C 88% 3.0 mph SW4.8 kmh SW 7.0 mph11.3 kmh 29.91 in1012.9 mb 0.00 in0.0 mm 0.00 in0.0 mm 0.00 in0.0 mm
02:20 AM 70.3°F21.3°C 66.6°F19.2°C 88% 2.9 mph SW4.7 kmh SW 7.0 mph11.3 kmh 29.91 in1012.9 mb 0.00 in0.0 mm 0.00 in0.0 mm 0.00 in0.0 mm
02:40 AM 70.4°F21.3°C 66.3°F19.1°C 87% 3.0 mph SSW4.8 kmh SSW 7.0 mph11.3 kmh 29.91 in1012.9 mb 0.00 in0.0 mm 0.00 in0.0 mm 0.00 in0.0 mm
03:00 AM 70.4°F21.3°C 66.3°F19.1°C 87% 2.7 mph S4.3 kmh S 6.0 mph9.7 kmh 29.90 in1012.5 mb 0.00 in0.0 mm 0.00 in0.0 mm 0.00 in0.0 mm
03:20 AM 70.4°F21.3°C 66.7°F19.3°C 88% 3.0 mph SW4.8 kmh SW 7.0 mph11.3 kmh 29.90 in1012.5 mb 0.00 in0.0 mm 0.00 in0.0 mm 0.00 in0.0 mm
03:40 AM 70.3°F21.3°C 66.6°F19.2°C 88% 4.2 mph SW6.8 kmh SW 9.0 mph14.5 kmh 29.90 in1012.5 mb 0.00 in0.0 mm 0.00 in0.0 mm 0.00 in0.0 mm
04:00 AM 70.1°F21.2°C 66.4°F19.1°C 88% 3.9 mph SSW6.3 kmh SSW 11.0 mph17.7 kmh 29.89 in1012.2 mb 0.00 in0.0 mm 0.00 in0.0 mm 0.00 in0.0 mm
04:20 AM 69.9°F21.1°C 66.2°F19.0°C 88% 5.0 mph S8.0 kmh S 11.0 mph17.7 kmh 29.89 in1012.2 mb 0.00 in0.0 mm 0.00 in0.0 mm 0.00 in0.0 mm
04:40 AM 69.9°F21.1°C 66.2°F19.0°C 88% 4.5 mph SSW7.2 kmh SSW 10.0 mph16.1 kmh 29.88 in1011.9 mb 0.00 in0.0 mm 0.00 in0.0 mm 0.00 in0.0 mm
05:00 AM 70.0°F21.1°C 66.3°F19.1°C 88% 4.5 mph SSW7.2 kmh SSW 11.0 mph17.7 kmh 29.88 in1011.9 mb 0.00 in0.0 mm 0.00 in0.0 mm 0.00 in0.0 mm
05:20 AM 69.9°F21.1°C 66.5°F19.2°C 89% 4.3 mph SSW6.9 kmh SSW 11.0 mph17.7 kmh 29.88 in1011.9 mb 0.00 in0.0 mm 0.00 in0.0 mm 0.00 in0.0 mm
05:40 AM 69.5°F20.8°C 66.4°F19.1°C 90% 4.0 mph SW6.4 kmh SW 9.0 mph14.5 kmh 29.89 in1012.2 mb 0.01 in0.3 mm 0.03 in0.8 mm 0.01 in0.3 mm
06:00 AM 69.1°F20.6°C 66.7°F19.3°C 92% 5.5 mph SSW8.9 kmh SSW 12.0 mph19.3 kmh 29.89 in1012.2 mb 0.02 in0.5 mm 0.02 in0.5 mm 0.02 in0.5 mm
06:20 AM 69.0°F20.6°C 66.9°F19.4°C 93% 4.2 mph SW6.8 kmh SW 10.0 mph16.1 kmh 29.90 in1012.5 mb 0.04 in1.0 mm 0.06 in1.5 mm 0.04 in1.0 mm
06:40 AM 69.0°F20.6°C 66.9°F19.4°C 93% 3.6 mph SSW5.8 kmh SSW 7.0 mph11.3 kmh 29.90 in1012.5 mb 0.03 in0.8 mm 0.00 in0.0 mm 0.04 in1.0 mm
07:00 AM 68.8°F20.4°C 66.7°F19.3°C 93% 3.0 mph SW4.8 kmh SW 7.0 mph11.3 kmh 29.90 in1012.5 mb 0.02 in0.5 mm 0.00 in0.0 mm 0.05 in1.3 mm
07:20 AM 68.8°F20.4°C 66.7°F19.3°C 93% 3.2 mph SW5.1 kmh SW 8.0 mph12.9 kmh 29.91 in1012.9 mb 0.01 in0.3 mm 0.00 in0.0 mm 0.05 in1.3 mm
07:40 AM 68.4°F20.2°C 66.3°F19.1°C 93% 3.0 mph WSW4.8 kmh WSW 8.0 mph12.9 kmh 29.92 in1013.2 mb 0.01 in0.3 mm 0.00 in0.0 mm 0.05 in1.3 mm
08:00 AM 68.6°F20.3°C 66.5°F19.2°C 93% 3.2 mph SW5.1 kmh SW 8.0 mph12.9 kmh 29.92 in1013.2 mb 0.00 in0.0 mm 0.00 in0.0 mm 0.05 in1.3 mm
08:20 AM 68.8°F20.4°C 66.4°F19.1°C 92% 3.0 mph WSW4.8 kmh WSW 7.0 mph11.3 kmh 29.93 in1013.5 mb 0.00 in0.0 mm 0.00 in0.0 mm 0.05 in1.3 mm
08:40 AM 69.3°F20.7°C 66.9°F19.4°C 92% 2.0 mph WSW3.2 kmh WSW 4.0 mph6.4 kmh 29.94 in1013.9 mb 0.00 in0.0 mm 0.00 in0.0 mm 0.05 in1.3 mm
09:00 AM 69.4°F20.8°C 66.3°F19.1°C 90% 4.6 mph WSW7.4 kmh WSW 9.0 mph14.5 kmh 29.95 in1014.2 mb 0.00 in0.0 mm 0.00 in0.0 mm 0.05 in1.3 mm
09:20 AM 69.7°F20.9°C 66.0°F18.9°C 88% 3.6 mph W5.8 kmh W 9.0 mph14.5 kmh 29.95 in1014.2 mb 0.00 in0.0 mm 0.00 in0.0 mm 0.05 in1.3 mm
09:40 AM 70.1°F21.2°C 65.0°F18.3°C 84% 2.2 mph WNW3.5 kmh WNW 8.0 mph12.9 kmh 29.96 in1014.6 mb 0.00 in0.0 mm 0.00 in0.0 mm 0.05 in1.3 mm
10:00 AM 70.6°F21.4°C 64.8°F18.2°C 82% 2.9 mph NNW4.7 kmh NNW 9.0 mph14.5 kmh 29.96 in1014.6 mb 0.00 in0.0 mm 0.00 in0.0 mm 0.05 in1.3 mm
10:20 AM 71.5°F21.9°C 65.0°F18.3°C 80% 4.3 mph NW6.9 kmh NW 9.0 mph14.5 kmh 29.96 in1014.6 mb 0.00 in0.0 mm 0.00 in0.0 mm 0.05 in1.3 mm
10:40 AM 72.4°F22.4°C 62.9°F17.2°C 72% 3.9 mph NW6.3 kmh NW 10.0 mph16.1 kmh 29.97 in1014.9 mb 0.00 in0.0 mm 0.00 in0.0 mm 0.05 in1.3 mm
11:00 AM 72.8°F22.7°C 63.2°F17.3°C 72% 4.4 mph WNW7.1 kmh WNW 8.0 mph12.9 kmh 29.97 in1014.9 mb 0.00 in0.0 mm 0.00 in0.0 mm 0.05 in1.3 mm
11:20 AM 73.3°F22.9°C 62.9°F17.2°C 70% 3.1 mph NW5.0 kmh NW 7.0 mph11.3 kmh 29.97 in1014.9 mb 0.00 in0.0 mm 0.00 in0.0 mm 0.05 in1.3 mm
11:40 AM 74.4°F23.6°C 60.5°F15.8°C 62% 3.4 mph NW5.5 kmh NW 9.0 mph14.5 kmh 29.97 in1014.9 mb 0.00 in0.0 mm 0.00 in0.0 mm 0.05 in1.3 mm
12:00 PM 75.7°F24.3°C 59.9°F15.5°C 58% 4.0 mph NW6.4 kmh NW 10.0 mph16.1 kmh 29.96 in1014.6 mb 0.00 in0.0 mm 0.00 in0.0 mm 0.05 in1.3 mm
12:20 PM 75.8°F24.3°C 60.0°F15.6°C 58% 4.0 mph WSW6.4 kmh WSW 8.0 mph12.9 kmh 29.97 in1014.9 mb 0.00 in0.0 mm 0.00 in0.0 mm 0.05 in1.3 mm
12:40 PM 76.4°F24.7°C 56.4°F13.6°C 50% 4.3 mph NW6.9 kmh NW 11.0 mph17.7 kmh 29.97 in1014.9 mb 0.00 in0.0 mm 0.00 in0.0 mm 0.05 in1.3 mm
01:00 PM 77.3°F25.2°C 54.3°F12.4°C 45% 3.6 mph NW5.8 kmh NW 8.0 mph12.9 kmh 29.97 in1014.9 mb 0.00 in0.0 mm 0.00 in0.0 mm 0.05 in1.3 mm
01:20 PM 77.8°F25.4°C 52.9°F11.6°C 42% 4.8 mph NW7.7 kmh NW 11.0 mph17.7 kmh 29.96 in1014.6 mb 0.00 in0.0 mm 0.00 in0.0 mm 0.05 in1.3 mm
01:40 PM 78.0°F25.6°C 51.7°F10.9°C 40% 5.4 mph NW8.7 kmh NW 11.0 mph17.7 kmh 29.97 in1014.9 mb 0.00 in0.0 mm 0.00 in0.0 mm 0.05 in1.3 mm
02:00 PM 78.1°F25.6°C 51.8°F11.0°C 40% 5.3 mph WNW8.5 kmh WNW 11.0 mph17.7 kmh 29.97 in1014.9 mb 0.00 in0.0 mm 0.00 in0.0 mm 0.05 in1.3 mm
02:20 PM 78.1°F25.6°C 51.8°F11.0°C 40% 5.3 mph WNW8.5 kmh WNW 11.0 mph17.7 kmh 29.97 in1014.9 mb 0.00 in0.0 mm 0.00 in0.0 mm 0.05 in1.3 mm
02:40 PM 78.1°F25.6°C 51.8°F11.0°C 40% 5.3 mph WNW8.5 kmh WNW 11.0 mph17.7 kmh 29.96 in1014.6 mb 0.00 in0.0 mm 0.00 in0.0 mm 0.05 in1.3 mm
03:00 PM 80.9°F27.2°C 52.2°F11.2°C 37% 3.8 mph NNW6.1 kmh NNW 9.0 mph14.5 kmh 29.95 in1014.2 mb 0.00 in0.0 mm 0.00 in0.0 mm 0.05 in1.3 mm
03:20 PM 81.0°F27.2°C 53.7°F12.1°C 39% 3.2 mph WNW5.1 kmh WNW 8.0 mph12.9 kmh 29.96 in1014.6 mb 0.00 in0.0 mm 0.00 in0.0 mm 0.05 in1.3 mm
03:40 PM 80.8°F27.1°C 53.5°F11.9°C 39% 5.1 mph WNW8.2 kmh WNW 13.0 mph20.9 kmh 29.96 in1014.6 mb 0.00 in0.0 mm 0.00 in0.0 mm 0.05 in1.3 mm
04:00 PM 82.4°F28.0°C 53.5°F11.9°C 37% 3.0 mph NW4.8 kmh NW 10.0 mph16.1 kmh 29.95 in1014.2 mb 0.00 in0.0 mm 0.00 in0.0 mm 0.05 in1.3 mm
04:20 PM 82.2°F27.9°C 54.8°F12.7°C 39% 3.9 mph WNW6.3 kmh WNW 9.0 mph14.5 kmh 29.95 in1014.2 mb 0.00 in0.0 mm 0.00 in0.0 mm 0.05 in1.3 mm
04:40 PM 81.7°F27.6°C 55.7°F13.2°C 41% 3.0 mph NW4.8 kmh NW 9.0 mph14.5 kmh 29.95 in1014.2 mb 0.00 in0.0 mm 0.00 in0.0 mm 0.05 in1.3 mm
05:00 PM 81.8°F27.7°C 56.5°F13.6°C 42% 3.8 mph W6.1 kmh W 9.0 mph14.5 kmh 29.95 in1014.2 mb 0.00 in0.0 mm 0.00 in0.0 mm 0.05 in1.3 mm
05:20 PM 81.4°F27.4°C 56.1°F13.4°C 42% 3.8 mph NW6.1 kmh NW 11.0 mph17.7 kmh 29.95 in1014.2 mb 0.00 in0.0 mm 0.00 in0.0 mm 0.05 in1.3 mm
05:40 PM 80.6°F27.0°C 56.0°F13.3°C 43% 5.2 mph W8.4 kmh W 9.0 mph14.5 kmh 29.95 in1014.2 mb 0.00 in0.0 mm 0.00 in0.0 mm 0.05 in1.3 mm
06:00 PM 80.4°F26.9°C 55.9°F13.3°C 43% 3.1 mph W5.0 kmh W 10.0 mph16.1 kmh 29.96 in1014.6 mb 0.00 in0.0 mm 0.00 in0.0 mm 0.05 in1.3 mm
06:20 PM 79.3°F26.3°C 55.5°F13.1°C 44% 4.2 mph WNW6.8 kmh WNW 13.0 mph20.9 kmh 29.96 in1014.6 mb 0.00 in0.0 mm 0.00 in0.0 mm 0.05 in1.3 mm
06:40 PM 78.9°F26.1°C 55.1°F12.8°C 44% 4.7 mph WNW7.6 kmh WNW 13.0 mph20.9 kmh 29.97 in1014.9 mb 0.00 in0.0 mm 0.00 in0.0 mm 0.05 in1.3 mm
07:00 PM 78.5°F25.8°C 54.8°F12.7°C 44% 4.8 mph NW7.7 kmh NW 9.0 mph14.5 kmh 29.97 in1014.9 mb 0.00 in0.0 mm 0.00 in0.0 mm 0.05 in1.3 mm
07:20 PM 78.1°F25.6°C 54.4°F12.4°C 44% 3.9 mph NW6.3 kmh NW 8.0 mph12.9 kmh 29.98 in1015.2 mb 0.00 in0.0 mm 0.00 in0.0 mm 0.05 in1.3 mm
07:40 PM 77.6°F25.3°C 54.6°F12.6°C 45% 3.9 mph NW6.3 kmh NW 12.0 mph19.3 kmh 29.98 in1015.2 mb 0.00 in0.0 mm 0.00 in0.0 mm 0.05 in1.3 mm
08:00 PM 77.1°F25.1°C 54.7°F12.6°C 46% 3.2 mph NW5.1 kmh NW 8.0 mph12.9 kmh 29.99 in1015.6 mb 0.00 in0.0 mm 0.00 in0.0 mm 0.05 in1.3 mm
08:20 PM 76.8°F24.9°C 54.5°F12.5°C 46% 3.2 mph NW5.1 kmh NW 9.0 mph14.5 kmh 30.00 in1015.9 mb 0.00 in0.0 mm 0.00 in0.0 mm 0.05 in1.3 mm
08:40 PM 76.3°F24.6°C 54.6°F12.6°C 47% 3.5 mph NW5.6 kmh NW 11.0 mph17.7 kmh 30.01 in1016.3 mb 0.00 in0.0 mm 0.00 in0.0 mm 0.05 in1.3 mm
09:00 PM 75.9°F24.4°C 54.8°F12.7°C 48% 2.8 mph NW4.5 kmh NW 6.0 mph9.7 kmh 30.02 in1016.6 mb 0.00 in0.0 mm 0.00 in0.0 mm 0.05 in1.3 mm
09:20 PM 75.5°F24.2°C 55.0°F12.8°C 49% 3.0 mph NW4.8 kmh NW 6.0 mph9.7 kmh 30.02 in1016.6 mb 0.00 in0.0 mm 0.00 in0.0 mm 0.05 in1.3 mm
09:40 PM 75.0°F23.9°C 55.1°F12.8°C 50% 1.9 mph WNW3.1 kmh WNW 6.0 mph9.7 kmh 30.03 in1016.9 mb 0.00 in0.0 mm 0.00 in0.0 mm 0.05 in1.3 mm
10:00 PM 74.3°F23.5°C 55.5°F13.1°C 52% 2.2 mph W3.5 kmh W 7.0 mph11.3 kmh 30.03 in1016.9 mb 0.00 in0.0 mm 0.00 in0.0 mm 0.05 in1.3 mm
10:20 PM 73.7°F23.2°C 55.5°F13.1°C 53% 2.6 mph WNW4.2 kmh WNW 7.0 mph11.3 kmh 30.04 in1017.3 mb 0.00 in0.0 mm 0.00 in0.0 mm 0.05 in1.3 mm
10:40 PM 73.2°F22.9°C 57.1°F13.9°C 57% 1.1 mph WSW1.8 kmh WSW 5.0 mph8.0 kmh 30.04 in1017.3 mb 0.00 in0.0 mm 0.00 in0.0 mm 0.05 in1.3 mm
11:00 PM 72.8°F22.7°C 57.6°F14.2°C 59% 1.2 mph WSW1.9 kmh WSW 5.0 mph8.0 kmh 30.04 in1017.3 mb 0.00 in0.0 mm 0.00 in0.0 mm 0.04 in1.0 mm
11:20 PM 72.4°F22.4°C 57.7°F14.3°C 60% 1.4 mph WNW2.3 kmh WNW 3.0 mph4.8 kmh 30.04 in1017.3 mb 0.00 in0.0 mm 0.00 in0.0 mm 0.04 in1.0 mm
11:40 PM 72.4°F22.4°C 57.7°F14.3°C 60% 1.0 mph NW1.6 kmh NW 3.0 mph4.8 kmh 30.04 in1017.3 mb 0.00 in0.0 mm 0.00 in0.0 mm 0.04 in1.0 mm